Time;durP1;ratioP1;P1;durP2;ratioP2;P2;SDS_P1;SDS_P2;PMS_P1;PMS_P2;Temp;Humidity;BMP_temperature;BMP_pressure;BME280_temperature;BME280_humidity;BME280_pressure;Samples;Min_cycle;Max_cycle;Signal;HPM_P1;HPM_P2
2022/12/23 00:00:11;;;;;;;7.55;2.60;;;10.50;99.90;;;;;;5051501;28;20100;-67
2022/12/23 00:02:37;;;;;;;9.57;2.13;;;10.60;99.90;;;;;;5057317;28;20024;-67
2022/12/23 00:05:04;;;;;;;12.10;3.25;;;10.50;99.90;;;;;;5061443;28;20036;-67
2022/12/23 00:07:30;;;;;;;12.45;2.92;;;10.50;99.90;;;;;;5064449;28;20036;-67
2022/12/23 00:09:55;;;;;;;10.82;3.15;;;10.50;99.90;;;;;;5055096;28;20082;-67
2022/12/23 00:15:06;;;;;;;9.77;2.90;;;10.50;99.90;;;;;;5062439;28;20043;-67
2022/12/23 00:17:39;;;;;;;11.93;3.00;;;10.50;99.90;;;;;;5065195;28;20040;-66
2022/12/23 00:20:05;;;;;;;10.13;3.00;;;10.40;99.90;;;;;;5054137;28;20140;-67
2022/12/23 00:25:15;;;;;;;7.60;2.28;;;10.50;99.90;;;;;;5052628;28;20412;-67
2022/12/23 00:28:00;;;;;;;8.20;2.65;;;10.50;99.90;;;;;;5052751;28;20033;-68
2022/12/23 00:30:27;;;;;;;7.93;2.80;;;10.40;99.90;;;;;;5052833;28;20016;-69
2022/12/23 00:32:52;;;;;;;7.13;2.22;;;10.40;99.90;;;;;;5052608;28;20021;-68
2022/12/23 00:35:19;;;;;;;11.30;3.03;;;10.40;99.90;;;;;;5052592;28;20055;-70
2022/12/23 00:37:45;;;;;;;14.52;3.15;;;10.40;99.90;;;;;;5052910;28;20048;-68
2022/12/23 00:42:59;;;;;;;6.72;2.60;;;10.40;99.90;;;;;;5048228;28;20504;-68
2022/12/23 00:45:25;;;;;;;8.63;2.65;;;10.40;99.90;;;;;;5050599;28;20025;-67
2022/12/23 00:50:36;;;;;;;8.70;2.58;;;10.40;99.90;;;;;;5051429;28;20055;-67
2022/12/23 00:53:02;;;;;;;10.88;2.70;;;10.30;99.90;;;;;;5054639;28;20056;-67
2022/12/23 00:55:28;;;;;;;10.52;3.38;;;10.30;99.90;;;;;;5054764;28;20129;-67
2022/12/23 00:57:54;;;;;;;7.60;3.00;;;10.30;99.90;;;;;;5054613;28;20470;-67
2022/12/23 01:05:35;;;;;;;5.70;2.85;;;10.30;99.90;;;;;;5055033;28;20021;-67
2022/12/23 01:05:49;;;;;;;13.60;4.55;;;10.30;99.90;;;;;;5055870;28;20083;-67
2022/12/23 01:08:15;;;;;;;11.75;4.13;;;10.30;99.90;;;;;;5055499;28;20424;-67
2022/12/23 01:10:40;;;;;;;9.27;3.75;;;10.30;99.90;;;;;;5055500;28;20461;-67
2022/12/23 01:13:07;;;;;;;16.00;4.47;;;10.30;99.90;;;;;;5055754;28;20033;-67
2022/12/23 01:15:32;;;;;;;12.93;4.80;;;10.30;99.90;;;;;;5055322;28;20029;-66
2022/12/23 01:17:58;;;;;;;13.65;5.05;;;10.30;99.90;;;;;;5055585;28;20164;-67
2022/12/23 01:20:24;;;;;;;14.05;4.45;;;10.30;99.90;;;;;;5055607;28;20061;-67
2022/12/23 01:22:50;;;;;;;15.90;4.93;;;10.30;99.90;;;;;;5055226;28;20059;-67
2022/12/23 01:25:16;;;;;;;14.10;5.40;;;10.30;99.90;;;;;;5055303;28;20551;-67
2022/12/23 01:27:42;;;;;;;12.52;5.03;;;10.30;99.90;;;;;;5054183;28;20431;-67
2022/12/23 01:30:08;;;;;;;18.20;7.20;;;10.30;99.90;;;;;;5055666;28;20064;-67
2022/12/23 01:32:33;;;;;;;16.58;6.75;;;10.30;99.90;;;;;;5055076;28;20032;-67
2022/12/23 01:34:59;;;;;;;15.57;6.32;;;10.40;99.90;;;;;;5054955;28;20389;-67
2022/12/23 01:37:24;;;;;;;16.50;5.60;;;10.40;99.90;;;;;;5055342;28;20044;-67
2022/12/23 01:39:50;;;;;;;14.82;6.13;;;10.40;99.90;;;;;;5054785;28;20044;-67
2022/12/23 01:45:20;;;;;;;15.55;6.10;;;10.50;99.90;;;;;;5055072;28;20036;-67
2022/12/23 01:47:54;;;;;;;19.38;7.05;;;10.40;99.90;;;;;;5054810;28;20747;-67
2022/12/23 01:50:28;;;;;;;18.58;7.63;;;10.50;99.90;;;;;;5054873;28;20476;-67
2022/12/23 01:53:16;;;;;;;16.00;7.10;;;10.50;99.90;;;;;;5055108;28;20536;-67
2022/12/23 01:55:55;;;;;;;19.42;7.38;;;10.50;99.90;;;;;;5054830;28;20025;-67
2022/12/23 01:58:26;;;;;;;19.85;8.38;;;10.40;99.90;;;;;;5054818;28;20049;-67
2022/12/23 02:03:42;;;;;;;20.73;7.90;;;10.50;99.90;;;;;;5053300;28;20083;-67
2022/12/23 02:09:16;;;;;;;23.98;9.30;;;10.50;99.90;;;;;;5053341;28;20031;-67
2022/12/23 02:12:12;;;;;;;23.60;10.25;;;10.50;99.90;;;;;;5053345;28;20041;-67
2022/12/23 02:17:43;;;;;;;27.10;10.20;;;10.50;99.90;;;;;;5051111;28;20078;-66
2022/12/23 02:20:27;;;;;;;28.77;10.15;;;10.50;99.90;;;;;;5050710;28;20031;-67
2022/12/23 02:23:24;;;;;;;31.50;10.65;;;10.50;99.90;;;;;;5058243;28;20025;-68
2022/12/23 02:26:04;;;;;;;28.13;10.70;;;10.50;99.90;;;;;;5053210;28;20029;-68
2022/12/23 02:29:19;;;;;;;28.05;12.02;;;10.50;99.90;;;;;;5050437;28;20028;-68
2022/12/23 02:31:53;;;;;;;28.88;10.90;;;10.50;99.90;;;;;;5019272;28;20061;-68
2022/12/23 02:34:25;;;;;;;30.00;10.70;;;10.50;99.90;;;;;;5052970;28;20021;-70
2022/12/23 02:37:32;;;;;;;32.92;12.07;;;10.50;99.90;;;;;;5050302;28;20037;-68
2022/12/23 02:40:28;;;;;;;31.95;12.38;;;10.50;99.90;;;;;;5010483;28;20030;-68
2022/12/23 02:43:14;;;;;;;28.85;10.68;;;10.40;99.90;;;;;;5050277;28;20508;-68
2022/12/23 02:46:11;;;;;;;29.77;11.02;;;10.50;99.90;;;;;;5051426;28;20396;-68
2022/12/23 02:48:53;;;;;;;28.40;11.00;;;10.40;99.90;;;;;;5047601;28;20048;-69
2022/12/23 02:51:20;;;;;;;;;;;10.40;99.90;;;;;;5051550;28;20041;-69
2022/12/23 02:53:53;;;;;;;30.67;10.88;;;10.40;99.90;;;;;;5052299;28;19916;-69
2022/12/23 02:56:20;;;;;;;29.13;11.20;;;10.30;99.90;;;;;;5052345;28;20021;-68
2022/12/23 02:58:53;;;;;;;29.63;11.38;;;10.30;99.90;;;;;;5052259;28;20040;-69
2022/12/23 03:01:20;;;;;;;24.77;10.45;;;10.40;99.90;;;;;;5052277;28;20542;-69
2022/12/23 03:03:47;;;;;;;31.35;10.68;;;10.30;99.90;;;;;;5052113;28;20032;-68
2022/12/23 03:06:33;;;;;;;30.42;11.52;;;10.30;99.90;;;;;;5052091;28;20475;-69
2022/12/23 03:08:59;;;;;;;27.63;10.63;;;10.30;99.90;;;;;;5051221;28;20364;-68
2022/12/23 03:12:02;;;;;;;26.05;8.82;;;10.30;99.90;;;;;;5056589;28;20164;-68
2022/12/23 03:14:49;;;;;;;24.92;9.52;;;10.30;99.90;;;;;;5058897;28;20041;-69
2022/12/23 03:17:54;;;;;;;26.48;9.77;;;10.30;99.90;;;;;;5062492;28;20124;-69
2022/12/23 03:20:51;;;;;;;25.77;9.35;;;10.30;99.90;;;;;;5056937;28;20431;-68
2022/12/23 03:23:34;;;;;;;31.33;9.82;;;10.30;99.90;;;;;;5068768;28;20033;-70
2022/12/23 03:26:11;;;;;;;25.80;9.77;;;10.30;99.90;;;;;;5061114;28;20086;-69
2022/12/23 03:28:55;;;;;;;26.35;9.95;;;10.30;99.90;;;;;;5057713;28;20036;-69
2022/12/23 03:31:25;;;;;;;24.88;9.30;;;10.30;99.90;;;;;;5069122;28;20057;-68
2022/12/23 03:33:58;;;;;;;25.10;8.32;;;10.30;99.90;;;;;;5059735;28;20028;-68
2022/12/23 03:36:28;;;;;;;25.33;8.98;;;10.30;99.90;;;;;;5060583;28;20481;-69
2022/12/23 03:38:54;;;;;;;25.70;10.13;;;10.30;99.90;;;;;;5068608;28;20036;-68
2022/12/23 03:41:32;;;;;;;26.80;9.05;;;10.30;99.90;;;;;;5055419;28;20499;-69
2022/12/23 03:44:07;;;;;;;26.95;10.05;;;10.30;99.90;;;;;;5064238;28;20028;-68
2022/12/23 03:46:40;;;;;;;27.58;9.68;;;10.30;99.90;;;;;;5065382;28;20025;-69
2022/12/23 03:49:10;;;;;;;24.50;8.57;;;10.30;99.90;;;;;;5055822;28;20104;-68
2022/12/23 03:51:52;;;;;;;25.13;9.45;;;10.30;99.90;;;;;;5066645;28;20139;-69
2022/12/23 03:54:23;;;;;;;25.17;8.48;;;10.30;99.90;;;;;;5062780;28;20376;-70
2022/12/23 03:56:57;;;;;;;22.35;8.00;;;10.40;99.90;;;;;;5056963;28;20068;-69
2022/12/23 03:59:28;;;;;;;20.67;7.25;;;10.40;99.90;;;;;;5039104;28;20017;-69
2022/12/23 04:02:08;;;;;;;20.08;7.72;;;10.40;99.90;;;;;;5064457;28;20025;-68
2022/12/23 04:04:52;;;;;;;23.65;7.85;;;10.40;99.90;;;;;;5065502;28;20383;-70
2022/12/23 04:07:29;;;;;;;18.65;6.72;;;10.40;99.90;;;;;;5055639;28;20419;-69
2022/12/23 04:09:56;;;;;;;16.92;5.47;;;10.30;99.90;;;;;;5063990;28;20025;-68
2022/12/23 04:12:23;;;;;;;17.80;6.25;;;10.30;99.90;;;;;;5063448;28;20055;-68
2022/12/23 04:14:50;;;;;;;14.80;5.38;;;10.30;99.90;;;;;;5056309;28;20421;-68
2022/12/23 04:17:16;;;;;;;14.05;5.03;;;10.30;99.90;;;;;;5068571;28;20064;-68
2022/12/23 04:19:46;;;;;;;13.15;4.60;;;10.30;99.90;;;;;;5058101;28;20099;-69
2022/12/23 04:22:15;;;;;;;11.63;4.63;;;10.30;99.90;;;;;;5061603;28;20060;-70
2022/12/23 04:24:41;;;;;;;12.68;4.43;;;10.30;99.90;;;;;;5066110;28;20036;-68
2022/12/23 04:27:11;;;;;;;14.23;3.97;;;10.30;99.90;;;;;;5056484;28;20101;-69
2022/12/23 04:29:37;;;;;;;10.52;3.50;;;10.30;99.90;;;;;;5070738;28;20079;-69
2022/12/23 04:32:03;;;;;;;5.40;2.70;;;10.30;99.90;;;;;;5064869;28;20025;-69
2022/12/23 04:34:29;;;;;;;7.60;3.30;;;10.30;99.90;;;;;;5063435;28;20516;-69
2022/12/23 04:36:55;;;;;;;6.72;3.03;;;10.30;99.90;;;;;;5071998;28;20040;-70
2022/12/23 04:39:20;;;;;;;8.70;3.03;;;10.30;99.90;;;;;;5059192;28;20035;-69
2022/12/23 04:41:46;;;;;;;6.82;2.80;;;10.30;99.90;;;;;;5069014;28;20033;-70
2022/12/23 04:44:12;;;;;;;8.45;3.80;;;10.30;99.90;;;;;;5065658;28;20036;-70
2022/12/23 04:46:38;;;;;;;10.30;3.60;;;10.40;99.90;;;;;;5061988;28;20082;-69
2022/12/23 04:49:03;;;;;;;6.60;2.35;;;10.30;99.90;;;;;;5072063;28;20021;-69
2022/12/23 04:51:29;;;;;;;6.57;2.90;;;10.40;99.90;;;;;;5059875;28;20055;-69
2022/12/23 04:53:54;;;;;;;6.07;2.97;;;10.40;99.90;;;;;;5067554;28;20429;-69
2022/12/23 04:56:20;;;;;;;10.35;4.35;;;10.40;99.90;;;;;;5066495;28;20472;-69
2022/12/23 04:58:45;;;;;;;6.47;3.10;;;10.40;99.90;;;;;;5060468;28;20554;-68
2022/12/23 05:01:11;;;;;;;9.30;3.38;;;10.40;99.90;;;;;;5071965;28;20027;-67
2022/12/23 05:03:38;;;;;;;6.70;3.40;;;10.40;99.90;;;;;;5060767;28;20462;-68
2022/12/23 05:06:04;;;;;;;7.65;3.38;;;10.40;99.90;;;;;;5066146;28;20384;-68
2022/12/23 05:08:31;;;;;;;9.30;3.58;;;10.40;99.90;;;;;;5067907;28;20051;-68
2022/12/23 05:10:57;;;;;;;10.38;3.65;;;10.40;99.90;;;;;;5058875;28;20028;-69
2022/12/23 05:13:22;;;;;;;8.98;3.97;;;10.40;99.90;;;;;;5071819;28;20047;-68
2022/12/23 05:15:49;;;;;;;10.52;4.53;;;10.40;99.90;;;;;;5062312;28;20066;-68
2022/12/23 05:18:15;;;;;;;9.07;4.10;;;10.30;99.90;;;;;;5064348;28;20037;-68
2022/12/23 05:20:41;;;;;;;9.10;4.00;;;10.30;99.90;;;;;;5069310;28;20048;-69
2022/12/23 05:23:07;;;;;;;12.52;4.65;;;10.30;99.90;;;;;;5058810;28;20072;-70
2022/12/23 05:25:37;;;;;;;13.05;4.35;;;10.30;99.90;;;;;;5070234;28;20025;-69
2022/12/23 05:28:04;;;;;;;13.80;5.03;;;10.30;99.90;;;;;;5064295;28;20032;-68
2022/12/23 05:30:29;;;;;;;12.80;4.43;;;10.30;99.90;;;;;;5062492;28;20044;-70
2022/12/23 05:32:56;;;;;;;12.20;4.55;;;10.30;99.90;;;;;;5071331;28;20099;-69
2022/12/23 05:35:22;;;;;;;12.73;4.68;;;10.30;99.90;;;;;;5058373;28;20025;-70
2022/12/23 05:37:48;;;;;;;13.13;4.40;;;10.30;99.90;;;;;;5067419;28;20509;-68
2022/12/23 05:40:13;;;;;;;15.35;5.28;;;10.30;99.90;;;;;;5064536;28;20111;-69
2022/12/23 05:42:39;;;;;;;16.60;5.53;;;10.30;99.90;;;;;;5061018;28;20029;-69
2022/12/23 05:45:05;;;;;;;16.92;5.97;;;10.30;99.90;;;;;;5071335;28;20162;-68
2022/12/23 05:47:31;;;;;;;15.77;5.78;;;10.30;99.90;;;;;;5054320;28;20025;-68
2022/12/23 05:49:57;;;;;;;17.83;6.43;;;10.30;99.90;;;;;;5062630;28;20503;-69
2022/12/23 05:52:23;;;;;;;20.98;7.82;;;10.20;99.90;;;;;;5062572;28;20400;-68
2022/12/23 05:54:49;;;;;;;20.83;7.32;;;10.20;99.90;;;;;;5069869;28;20025;-68
2022/12/23 05:57:14;;;;;;;21.45;8.80;;;10.20;99.90;;;;;;5057977;28;20040;-69
2022/12/23 05:59:40;;;;;;;22.58;9.50;;;10.30;99.90;;;;;;5068508;28;20028;-70
2022/12/23 06:02:06;;;;;;;18.38;7.60;;;10.20;99.90;;;;;;5063806;28;20034;-68
2022/12/23 06:04:31;;;;;;;22.67;8.93;;;10.20;99.90;;;;;;5061892;28;20035;-68
2022/12/23 06:06:57;;;;;;;20.58;9.00;;;10.20;99.90;;;;;;5071293;28;20029;-68
2022/12/23 06:09:22;;;;;;;23.83;10.70;;;10.20;99.90;;;;;;5057281;28;20029;-68
2022/12/23 06:11:48;;;;;;;23.98;9.45;;;10.20;99.90;;;;;;5067512;28;20075;-69
2022/12/23 06:14:14;;;;;;;24.40;9.65;;;10.20;99.90;;;;;;5064697;28;20423;-68
2022/12/23 06:16:39;;;;;;;24.63;7.47;;;10.20;99.90;;;;;;5060265;28;20372;-68
2022/12/23 06:19:05;;;;;;;21.55;8.50;;;10.20;99.90;;;;;;5070691;28;20790;-69
2022/12/23 06:21:32;;;;;;;24.02;8.68;;;10.20;99.90;;;;;;5058864;28;20032;-68
2022/12/23 06:23:58;;;;;;;24.13;9.48;;;10.20;99.90;;;;;;5065597;28;20110;-69
2022/12/23 06:26:23;;;;;;;19.75;7.45;;;10.20;99.90;;;;;;5065764;28;20460;-69
2022/12/23 06:28:49;;;;;;;22.65;9.43;;;10.20;99.90;;;;;;5058560;28;20056;-71
2022/12/23 06:31:15;;;;;;;22.50;9.05;;;10.20;99.90;;;;;;5070409;28;20069;-69
2022/12/23 06:33:41;;;;;;;22.15;8.13;;;10.20;99.90;;;;;;5059640;28;20029;-69
2022/12/23 06:36:07;;;;;;;23.52;7.82;;;10.20;99.90;;;;;;5064430;28;20112;-69
2022/12/23 06:38:32;;;;;;;21.35;8.30;;;10.20;99.90;;;;;;5065408;28;20041;-69
2022/12/23 06:40:58;;;;;;;19.67;7.90;;;10.10;99.90;;;;;;5057249;28;20090;-70
2022/12/23 06:43:23;;;;;;;23.35;8.90;;;10.20;99.90;;;;;;5069946;28;20040;-71
2022/12/23 06:45:49;;;;;;;22.27;7.70;;;10.10;99.90;;;;;;5060629;28;20036;-69
2022/12/23 06:48:17;;;;;;;22.33;7.03;;;10.10;99.90;;;;;;5063047;28;20025;-67
2022/12/23 06:50:43;;;;;;;16.27;6.32;;;10.10;99.90;;;;;;5067509;28;20464;-67
2022/12/23 06:53:09;;;;;;;18.88;7.00;;;10.10;99.90;;;;;;5056748;28;20029;-69
2022/12/23 06:55:34;;;;;;;20.08;7.38;;;10.00;99.90;;;;;;5068314;28;20056;-69
2022/12/23 06:58:00;;;;;;;19.48;7.55;;;10.00;99.90;;;;;;5061773;28;20063;-70
2022/12/23 07:00:26;;;;;;;23.00;8.27;;;10.00;99.90;;;;;;5061166;28;20069;-68
2022/12/23 07:02:54;;;;;;;22.95;8.45;;;10.00;99.90;;;;;;5068929;28;20499;-69
2022/12/23 07:05:20;;;;;;;23.50;8.45;;;9.90;99.90;;;;;;5056731;28;20078;-66
2022/12/23 07:07:46;;;;;;;22.50;9.10;;;9.90;99.90;;;;;;5066320;28;20033;-67
2022/12/23 07:10:11;;;;;;;22.85;8.75;;;9.90;99.90;;;;;;5061980;28;20428;-67
2022/12/23 07:12:38;;;;;;;22.92;8.55;;;10.00;99.90;;;;;;5059371;28;20032;-67
2022/12/23 07:15:04;;;;;;;28.63;9.80;;;9.90;99.90;;;;;;5069837;28;20112;-67
2022/12/23 07:17:31;;;;;;;29.60;10.05;;;10.00;99.90;;;;;;5057192;28;20020;-67
2022/12/23 07:19:56;;;;;;;29.65;11.23;;;9.90;99.90;;;;;;5064959;28;20037;-67
2022/12/23 07:22:22;;;;;;;30.27;10.82;;;9.90;99.90;;;;;;5063946;28;20056;-67
2022/12/23 07:24:47;;;;;;;32.97;11.00;;;9.90;99.90;;;;;;5072951;28;20108;-67
2022/12/23 07:27:13;;;;;;;32.60;11.95;;;9.90;99.90;;;;;;5056507;28;20112;-69
2022/12/23 07:29:39;;;;;;;34.13;11.20;;;9.90;99.90;;;;;;5067157;28;20104;-66
2022/12/23 07:32:04;;;;;;;37.55;13.73;;;9.80;99.90;;;;;;5061624;28;20032;-68
2022/12/23 07:34:30;;;;;;;39.38;13.65;;;9.80;99.90;;;;;;5059743;28;20107;-67
2022/12/23 07:36:55;;;;;;;38.83;13.40;;;9.80;99.90;;;;;;5068760;28;20071;-66
2022/12/23 07:39:21;;;;;;;39.25;13.98;;;9.80;99.90;;;;;;5056213;28;20495;-67
2022/12/23 07:41:47;;;;;;;45.17;15.02;;;9.80;99.90;;;;;;5065555;28;20040;-69
2022/12/23 07:44:12;;;;;;;53.97;15.63;;;9.80;99.90;;;;;;5062741;28;20028;-68
2022/12/23 07:46:38;;;;;;;45.60;16.02;;;9.90;99.90;;;;;;5058463;28;20053;-66
2022/12/23 07:49:04;;;;;;;47.03;15.48;;;9.90;99.90;;;;;;5059204;28;20041;-67
2022/12/23 07:51:30;;;;;;;44.22;15.32;;;9.90;99.90;;;;;;5066437;28;20045;-66
2022/12/23 07:53:56;;;;;;;47.35;15.27;;;10.00;99.90;;;;;;5060636;28;20504;-66
2022/12/23 07:56:22;;;;;;;46.95;15.30;;;10.00;99.90;;;;;;5061091;28;20033;-67
2022/12/23 07:58:52;;;;;;;43.42;16.27;;;10.00;99.90;;;;;;5067279;28;20041;-67
2022/12/23 08:01:18;;;;;;;52.00;17.00;;;10.10;99.90;;;;;;5055071;28;20028;-67
2022/12/23 08:03:44;;;;;;;50.45;16.10;;;10.10;99.90;;;;;;5066019;28;20021;-69
2022/12/23 08:06:11;;;;;;;43.83;15.38;;;10.20;99.90;;;;;;5062024;28;20090;-68
2022/12/23 08:08:38;;;;;;;49.53;16.48;;;10.20;99.90;;;;;;5058319;28;20029;-68
2022/12/23 08:11:06;;;;;;;50.60;15.98;;;10.30;99.90;;;;;;5068721;28;20383;-68
2022/12/23 08:13:35;;;;;;;47.22;15.52;;;10.30;99.90;;;;;;5056714;28;20059;-68
2022/12/23 08:16:03;;;;;;;78.80;17.98;;;10.30;99.90;;;;;;5071067;28;20036;-68
2022/12/23 08:18:30;;;;;;;43.08;14.90;;;10.30;99.90;;;;;;5057970;28;20029;-66
2022/12/23 08:21:00;;;;;;;44.30;15.15;;;10.40;99.90;;;;;;5057014;28;20043;-66
2022/12/23 08:23:27;;;;;;;44.55;15.00;;;10.40;99.90;;;;;;5048869;28;20024;-68
2022/12/23 08:26:06;;;;;;;51.17;16.20;;;10.40;99.90;;;;;;5064751;28;20045;-70
2022/12/23 08:28:33;;;;;;;49.25;15.93;;;10.40;99.90;;;;;;5064964;28;20100;-69
2022/12/23 08:31:09;;;;;;;48.17;15.43;;;10.40;99.90;;;;;;5054962;28;20093;-68
2022/12/23 08:33:37;;;;;;;46.05;15.82;;;10.40;99.90;;;;;;5066840;28;20029;-68
2022/12/23 08:36:04;;;;;;;46.97;17.00;;;10.50;99.90;;;;;;5060408;28;20021;-68
2022/12/23 08:38:30;;;;;;;48.83;16.00;;;10.50;99.90;;;;;;5059107;28;20132;-68
2022/12/23 08:40:56;;;;;;;44.45;15.25;;;10.50;99.90;;;;;;5067439;28;20123;-67
2022/12/23 08:43:21;;;;;;;93.97;19.60;;;10.50;99.90;;;;;;5054900;28;20056;-68
2022/12/23 08:45:47;;;;;;;50.38;15.48;;;10.40;99.90;;;;;;5064940;28;20353;-68
2022/12/23 08:48:13;;;;;;;57.10;16.90;;;10.50;99.90;;;;;;5062293;28;20037;-68
2022/12/23 08:50:41;;;;;;;49.58;16.15;;;10.50;99.90;;;;;;5057744;28;20132;-68
2022/12/23 08:53:07;;;;;;;59.22;17.95;;;10.50;99.90;;;;;;5068549;28;20036;-68
2022/12/23 08:55:41;;;;;;;57.00;17.55;;;10.60;99.90;;;;;;5052976;28;20036;-69
2022/12/23 08:58:07;;;;;;;53.80;18.13;;;10.60;99.90;;;;;;5054942;28;20037;-68
2022/12/23 09:00:34;;;;;;;48.92;17.67;;;10.60;99.90;;;;;;5064607;28;20550;-68
2022/12/23 09:03:00;;;;;;;64.28;18.38;;;10.60;99.90;;;;;;5054855;28;20021;-69
2022/12/23 09:05:25;;;;;;;52.55;16.73;;;10.70;99.90;;;;;;5067734;28;20024;-68
2022/12/23 09:07:51;;;;;;;46.70;16.73;;;10.70;99.90;;;;;;5058854;28;20107;-66
2022/12/23 09:10:17;;;;;;;57.40;17.38;;;10.70;99.90;;;;;;5060560;28;20021;-68
2022/12/23 09:12:42;;;;;;;53.28;16.70;;;10.70;99.90;;;;;;5066295;28;20028;-66
2022/12/23 09:15:09;;;;;;;50.10;17.15;;;10.70;99.90;;;;;;5058566;28;20068;-68
2022/12/23 09:17:34;;;;;;;48.92;15.48;;;10.70;99.90;;;;;;5069953;28;20183;-69
2022/12/23 09:20:00;;;;;;;53.05;16.00;;;10.70;99.90;;;;;;5063932;28;20527;-66
2022/12/23 09:22:25;;;;;;;86.80;16.65;;;10.70;99.90;;;;;;5062820;28;20029;-66
2022/12/23 09:24:51;;;;;;;63.38;16.17;;;10.70;99.90;;;;;;5070402;28;20027;-69
2022/12/23 09:27:17;;;;;;;64.05;14.77;;;10.60;99.90;;;;;;5063937;28;20484;-67
2022/12/23 09:29:42;;;;;;;46.10;13.68;;;10.70;99.90;;;;;;5060994;28;20028;-70
2022/12/23 09:32:08;;;;;;;65.43;15.80;;;10.60;99.90;;;;;;5064674;28;20091;-68
2022/12/23 09:34:33;;;;;;;46.78;15.60;;;10.60;99.90;;;;;;5068409;28;20372;-67
2022/12/23 09:36:59;;;;;;;60.00;19.42;;;10.70;99.90;;;;;;5056794;28;20037;-68
2022/12/23 09:39:24;;;;;;;58.65;18.77;;;10.70;99.90;;;;;;5071172;28;20071;-69
2022/12/23 09:42:00;;;;;;;52.25;16.80;;;10.70;99.90;;;;;;5061384;28;20033;-67
2022/12/23 09:44:32;;;;;;;50.67;18.50;;;10.70;99.90;;;;;;5062778;28;20036;-70
2022/12/23 09:47:03;;;;;;;57.08;17.95;;;10.70;99.90;;;;;;5070376;28;20086;-68
2022/12/23 09:49:28;;;;;;;51.58;17.58;;;10.70;99.90;;;;;;5058986;28;20074;-68
2022/12/23 09:52:00;;;;;;;50.80;16.90;;;10.70;99.90;;;;;;5066191;28;20448;-70
2022/12/23 09:54:30;;;;;;;49.75;17.13;;;10.80;99.90;;;;;;5064833;28;20068;-67
2022/12/23 09:57:16;;;;;;;49.17;17.02;;;10.80;99.90;;;;;;5057964;28;20037;-70
2022/12/23 10:00:03;;;;;;;52.38;17.15;;;10.80;99.90;;;;;;5046413;28;20032;-70
2022/12/23 10:02:53;;;;;;;51.58;19.08;;;10.80;99.90;;;;;;5052049;28;20037;-68
2022/12/23 10:05:42;;;;;;;52.63;18.10;;;10.80;99.90;;;;;;5070329;28;20021;-68
2022/12/23 10:08:28;;;;;;;54.00;18.60;;;10.80;99.90;;;;;;5054541;28;20028;-67
2022/12/23 10:10:59;;;;;;;58.25;21.55;;;10.90;99.90;;;;;;5065753;28;20024;-68
2022/12/23 10:13:34;;;;;;;66.65;21.02;;;10.90;99.90;;;;;;5041895;28;20337;-68
2022/12/23 10:16:22;;;;;;;52.20;18.90;;;10.90;99.90;;;;;;5065423;28;20024;-67
2022/12/23 10:19:05;;;;;;;77.35;25.20;;;10.90;99.90;;;;;;5055228;28;20072;-68
2022/12/23 10:21:43;;;;;;;58.47;21.05;;;10.90;99.90;;;;;;5066674;28;20029;-70
2022/12/23 10:24:33;;;;;;;77.38;21.73;;;11.00;99.90;;;;;;5062427;28;20048;-69
2022/12/23 10:27:16;;;;;;;51.42;18.95;;;11.00;99.90;;;;;;5059817;28;20099;-69
2022/12/23 10:29:42;;;;;;;50.10;17.15;;;11.00;99.90;;;;;;5067472;28;20120;-68
2022/12/23 10:32:24;;;;;;;61.15;18.00;;;11.00;99.90;;;;;;5063313;28;20445;-67
2022/12/23 10:35:14;;;;;;;47.13;17.17;;;11.00;99.90;;;;;;5063195;28;20028;-69
2022/12/23 10:37:51;;;;;;;45.58;16.48;;;11.10;99.90;;;;;;5043845;28;20051;-69
2022/12/23 10:40:36;;;;;;;48.55;17.02;;;11.10;99.90;;;;;;5062470;28;20029;-68
2022/12/23 10:43:07;;;;;;;40.58;14.95;;;11.00;99.90;;;;;;5070301;28;20027;-68
2022/12/23 10:45:36;;;;;;;43.95;15.60;;;11.00;99.90;;;;;;5058662;28;20031;-69
2022/12/23 10:48:22;;;;;;;40.00;14.80;;;11.00;99.90;;;;;;5065060;28;20036;-70
2022/12/23 10:51:20;;;;;;;39.95;15.13;;;11.10;99.90;;;;;;5067952;28;20496;-67
2022/12/23 10:53:51;;;;;;;39.17;15.13;;;11.00;99.90;;;;;;5048174;28;20116;-69
2022/12/23 10:56:18;;;;;;;41.25;15.45;;;11.00;99.90;;;;;;5057559;28;20049;-67
2022/12/23 10:58:49;;;;;;;41.00;15.38;;;11.00;99.90;;;;;;5053361;28;20438;-69
2022/12/23 11:01:16;;;;;;;39.22;14.25;;;11.00;99.90;;;;;;5059625;28;20455;-68
2022/12/23 11:04:03;;;;;;;38.13;14.10;;;11.10;99.90;;;;;;5067383;28;20029;-68
2022/12/23 11:06:30;;;;;;;41.05;16.17;;;11.10;99.90;;;;;;5065932;28;20480;-67
2022/12/23 11:08:59;;;;;;;35.35;13.68;;;11.00;99.90;;;;;;5057784;28;20025;-68
2022/12/23 11:11:51;;;;;;;34.97;13.43;;;11.00;99.90;;;;;;5041620;28;20024;-69
2022/12/23 11:14:40;;;;;;;47.78;15.23;;;11.00;99.90;;;;;;5062165;28;20029;-70
2022/12/23 11:17:19;;;;;;;37.22;14.60;;;11.00;99.90;;;;;;5060414;28;20041;-68
2022/12/23 11:19:44;;;;;;;34.67;13.30;;;11.00;99.90;;;;;;5058941;28;20026;-69
2022/12/23 11:22:22;;;;;;;104.35;18.50;;;11.00;99.90;;;;;;5062110;28;20021;-69
2022/12/23 11:24:47;;;;;;;36.33;14.10;;;11.00;99.90;;;;;;5054512;28;20037;-69
2022/12/23 11:27:17;;;;;;;40.20;14.18;;;11.10;99.90;;;;;;5067730;28;20044;-67
2022/12/23 11:29:48;;;;;;;38.80;13.43;;;11.10;99.90;;;;;;5056075;28;20023;-70
2022/12/23 11:32:23;;;;;;;69.68;14.93;;;11.00;99.90;;;;;;5065548;28;20477;-68
2022/12/23 11:34:50;;;;;;;38.72;13.50;;;11.10;99.90;;;;;;5064206;28;20033;-69
2022/12/23 11:37:35;;;;;;;38.03;12.93;;;11.00;99.90;;;;;;5057382;28;20043;-67
2022/12/23 11:40:05;;;;;;;32.33;11.45;;;10.90;99.90;;;;;;5042269;28;20093;-70
2022/12/23 11:42:33;;;;;;;38.92;10.93;;;10.90;99.90;;;;;;5062298;28;20119;-68
2022/12/23 11:44:59;;;;;;;29.20;10.45;;;10.80;99.90;;;;;;5063562;28;20071;-68
2022/12/23 11:47:30;;;;;;;30.88;10.02;;;10.80;99.90;;;;;;5055174;28;20052;-68
2022/12/23 11:49:58;;;;;;;26.95;9.18;;;10.70;99.90;;;;;;5040446;28;20029;-67
2022/12/23 11:52:29;;;;;;;36.20;10.15;;;10.70;99.90;;;;;;5063886;28;20130;-69
2022/12/23 11:55:03;;;;;;;34.92;10.43;;;10.60;99.90;;;;;;5064405;28;20024;-70
2022/12/23 11:57:47;;;;;;;32.80;10.13;;;10.60;99.90;;;;;;5055356;28;20079;-70
2022/12/23 12:00:20;;;;;;;30.15;9.70;;;10.60;99.90;;;;;;5065391;28;20044;-70
2022/12/23 12:02:49;;;;;;;38.53;11.18;;;10.60;99.90;;;;;;5063563;28;20082;-69
2022/12/23 12:05:32;;;;;;;31.23;10.48;;;10.60;99.90;;;;;;5057167;28;20029;-69
2022/12/23 12:08:01;;;;;;;33.03;9.75;;;10.60;99.90;;;;;;5041262;28;20043;-69
2022/12/23 12:10:33;;;;;;;35.28;10.85;;;10.60;99.90;;;;;;5063786;28;20111;-69
2022/12/23 12:13:06;;;;;;;46.95;11.05;;;10.60;99.90;;;;;;5065084;28;20040;-69
2022/12/23 12:15:32;;;;;;;39.95;11.50;;;10.50;99.90;;;;;;5055445;28;20021;-68
2022/12/23 12:17:59;;;;;;;58.50;13.15;;;10.60;99.90;;;;;;5067233;28;20033;-70
2022/12/23 12:20:38;;;;;;;39.00;12.18;;;10.60;99.90;;;;;;5059630;28;20020;-70
2022/12/23 12:23:20;;;;;;;42.45;11.35;;;10.50;99.90;;;;;;5058761;28;20047;-69
2022/12/23 12:26:10;;;;;;;37.38;10.82;;;10.60;99.90;;;;;;5068289;28;20028;-68
2022/12/23 12:28:44;;;;;;;39.17;12.68;;;10.60;99.90;;;;;;5059745;28;20108;-68
2022/12/23 12:31:30;;;;;;;42.60;12.02;;;10.60;99.90;;;;;;5057411;28;20051;-70
2022/12/23 12:34:26;;;;;;;65.50;14.30;;;10.60;99.90;;;;;;5040136;28;20062;-70
2022/12/23 12:37:06;;;;;;;43.08;12.60;;;10.60;99.90;;;;;;5058344;28;20029;-70
2022/12/23 12:39:41;;;;;;;43.88;12.57;;;10.60;99.90;;;;;;5068103;28;20029;-68
2022/12/23 12:42:39;;;;;;;48.40;12.88;;;10.60;99.90;;;;;;5052385;28;20112;-68
2022/12/23 12:45:15;;;;;;;45.00;13.23;;;10.60;99.90;;;;;;5046614;28;20044;-69
2022/12/23 12:47:50;;;;;;;42.75;14.40;;;10.60;99.90;;;;;;5057951;28;20028;-70
2022/12/23 12:50:26;;;;;;;43.88;14.07;;;10.60;99.90;;;;;;5069658;28;20049;-70
2022/12/23 12:52:54;;;;;;;42.33;13.57;;;10.60;99.90;;;;;;5063747;28;20068;-70
2022/12/23 12:55:26;;;;;;;44.33;14.98;;;10.60;99.90;;;;;;5071312;28;20031;-69
2022/12/23 12:57:52;;;;;;;46.72;14.27;;;10.60;99.90;;;;;;5042987;28;20522;-70
2022/12/23 13:00:21;;;;;;;42.25;13.35;;;10.60;99.90;;;;;;5068761;28;20115;-69
2022/12/23 13:02:58;;;;;;;42.85;15.43;;;10.60;99.90;;;;;;5064468;28;20112;-68
2022/12/23 13:05:36;;;;;;;43.33;14.63;;;10.60;99.90;;;;;;5059935;28;20021;-68
2022/12/23 13:08:24;;;;;;;47.28;14.95;;;10.60;99.90;;;;;;5049530;28;20028;-70
2022/12/23 13:10:56;;;;;;;47.63;15.73;;;10.60;99.90;;;;;;5055462;28;20043;-69
2022/12/23 13:13:30;;;;;;;55.28;17.35;;;10.60;99.90;;;;;;5071172;28;20441;-69
2022/12/23 13:16:02;;;;;;;59.55;21.65;;;10.60;99.90;;;;;;5041184;28;20029;-69
2022/12/23 13:18:52;;;;;;;46.65;16.15;;;10.60;99.90;;;;;;5055776;28;20453;-70